createdAt,value
2023-01-19T00:01:40.555Z,3.10
2023-01-19T00:04:08.531Z,3.20
2023-01-19T00:06:36.340Z,3.20
2023-01-19T00:09:04.619Z,3.20
2023-01-19T00:11:32.356Z,3.20
2023-01-19T00:14:00.121Z,3.30
2023-01-19T00:16:27.937Z,3.30
2023-01-19T00:18:57.083Z,3.20
2023-01-19T00:21:24.889Z,3.30
2023-01-19T00:23:52.807Z,3.30
2023-01-19T00:26:22.082Z,3.30
2023-01-19T00:28:50.716Z,3.30
2023-01-19T00:31:20.558Z,3.30
2023-01-19T00:33:49.502Z,3.30
2023-01-19T00:36:19.121Z,3.30
2023-01-19T00:38:46.888Z,3.30
2023-01-19T00:41:14.719Z,3.30
2023-01-19T00:43:41.533Z,3.40
2023-01-19T00:46:09.318Z,3.40
2023-01-19T00:48:37.159Z,3.40
2023-01-19T00:51:05.352Z,3.40
2023-01-19T00:53:34.488Z,3.40
2023-01-19T00:56:02.281Z,3.40
2023-01-19T00:58:30.076Z,3.50
2023-01-19T01:01:03.361Z,3.50
2023-01-19T01:03:31.504Z,3.40
2023-01-19T01:05:59.332Z,3.40
2023-01-19T01:08:27.173Z,3.50
2023-01-19T01:10:56.803Z,3.50
2023-01-19T01:13:27.273Z,3.50
2023-01-19T01:15:56.349Z,3.50
2023-01-19T01:18:24.739Z,3.50
2023-01-19T01:20:55.171Z,3.50
2023-01-19T01:23:23.777Z,3.50
2023-01-19T01:25:51.603Z,3.50
2023-01-19T01:28:20.682Z,3.60
2023-01-19T01:30:48.727Z,3.60
2023-01-19T01:33:39.924Z,3.60
2023-01-19T01:36:04.681Z,3.60
2023-01-19T01:38:32.450Z,3.60
2023-01-19T01:41:00.215Z,3.60
2023-01-19T01:43:44.737Z,3.60
2023-01-19T01:46:15.437Z,3.50
2023-01-19T01:48:45.599Z,3.60
2023-01-19T01:51:27.705Z,3.60
2023-01-19T01:54:06.987Z,3.60
2023-01-19T01:56:38.377Z,3.60
2023-01-19T01:59:24.329Z,3.60
2023-01-19T02:02:10.318Z,3.70
2023-01-19T02:04:39.294Z,3.70
2023-01-19T02:07:24.752Z,3.70
2023-01-19T02:10:10.552Z,3.70
2023-01-19T02:12:56.095Z,3.80
2023-01-19T02:15:25.282Z,3.80
2023-01-19T02:17:53.087Z,3.80
2023-01-19T02:20:26.966Z,3.80
2023-01-19T02:22:58.681Z,3.80
2023-01-19T02:25:28.477Z,3.90
2023-01-19T02:27:56.605Z,4.00
2023-01-19T02:30:24.606Z,3.90
2023-01-19T02:32:52.671Z,3.90
2023-01-19T02:35:21.841Z,3.80
2023-01-19T02:37:49.754Z,3.80
2023-01-19T02:40:20.740Z,3.80
2023-01-19T02:42:51.705Z,3.90
2023-01-19T02:45:22.700Z,3.90
2023-01-19T02:47:52.763Z,3.90
2023-01-19T02:50:41.646Z,3.80
2023-01-19T02:53:47.512Z,3.80
2023-01-19T02:56:40.667Z,3.90
2023-01-19T02:59:17.944Z,3.90
2023-01-19T03:01:58.822Z,3.90
2023-01-19T03:04:34.930Z,3.90
2023-01-19T03:07:09.593Z,3.90
2023-01-19T03:09:44.701Z,3.90
2023-01-19T03:12:20.755Z,3.90
2023-01-19T03:14:50.910Z,3.90
2023-01-19T03:17:19.888Z,3.90
2023-01-19T03:19:50.354Z,3.90
2023-01-19T03:22:23.660Z,3.90
2023-01-19T03:24:54.199Z,3.90
2023-01-19T03:27:26.423Z,3.90
2023-01-19T03:29:59.949Z,4.00
2023-01-19T03:32:32.721Z,4.00
2023-01-19T03:35:03.978Z,4.00
2023-01-19T03:37:32.854Z,4.00
2023-01-19T03:40:01.133Z,3.90
2023-01-19T03:42:29.477Z,3.90
2023-01-19T03:45:01.187Z,3.90
2023-01-19T03:47:29.946Z,3.90
2023-01-19T03:49:59.270Z,3.90
2023-01-19T03:52:33.152Z,4.00
2023-01-19T03:55:01.529Z,4.00
2023-01-19T03:57:29.406Z,3.90
2023-01-19T03:59:59.103Z,3.90
2023-01-19T04:02:27.045Z,3.90
2023-01-19T04:04:54.837Z,3.90
2023-01-19T04:07:22.601Z,3.90
2023-01-19T04:09:50.375Z,3.90
2023-01-19T04:12:18.147Z,3.90
2023-01-19T04:14:45.878Z,3.90
2023-01-19T04:17:16.036Z,3.90
2023-01-19T04:19:45.128Z,3.90
2023-01-19T04:22:12.892Z,3.80
2023-01-19T04:24:40.651Z,3.90
2023-01-19T04:27:08.423Z,3.90
2023-01-19T04:29:36.151Z,3.90
2023-01-19T04:32:03.903Z,3.90
2023-01-19T04:34:32.985Z,3.90
2023-01-19T04:37:00.748Z,3.90
2023-01-19T04:39:28.492Z,3.90
2023-01-19T04:41:57.425Z,3.90
2023-01-19T04:44:25.449Z,3.90
2023-01-19T04:46:53.274Z,4.00
2023-01-19T04:49:21.534Z,4.00
2023-01-19T04:51:50.670Z,4.00
2023-01-19T04:54:18.507Z,4.00
2023-01-19T04:56:46.679Z,4.00
2023-01-19T04:59:14.915Z,4.00
2023-01-19T05:01:42.752Z,4.00
2023-01-19T05:04:10.523Z,4.00
2023-01-19T05:06:38.341Z,3.90
2023-01-19T05:09:09.049Z,4.00
2023-01-19T05:11:36.869Z,4.00
2023-01-19T05:14:04.655Z,4.00
2023-01-19T05:16:32.398Z,4.00
2023-01-19T05:19:00.153Z,4.00
2023-01-19T05:21:28.228Z,4.00
2023-01-19T05:23:56.004Z,4.00
2023-01-19T05:26:25.122Z,4.10
2023-01-19T05:28:52.855Z,4.00
2023-01-19T05:31:20.665Z,4.10
2023-01-19T05:33:49.531Z,4.00
2023-01-19T05:36:17.308Z,4.10
2023-01-19T05:38:45.115Z,4.00
2023-01-19T05:41:12.845Z,4.00
2023-01-19T05:43:41.942Z,4.00
2023-01-19T05:46:09.685Z,4.10
2023-01-19T05:48:37.652Z,4.10
2023-01-19T05:51:05.966Z,4.10
2023-01-19T05:53:33.734Z,4.10
2023-01-19T05:56:02.427Z,4.00
2023-01-19T05:58:30.641Z,4.00
2023-01-19T06:01:05.383Z,4.00
2023-01-19T06:03:33.820Z,4.00
2023-01-19T06:06:02.115Z,4.00
2023-01-19T06:08:30.361Z,3.90
2023-01-19T06:10:58.092Z,3.90
2023-01-19T06:13:25.918Z,3.90
2023-01-19T06:16:00.119Z,3.90
2023-01-19T06:18:28.511Z,3.80
2023-01-19T06:20:58.748Z,3.80
2023-01-19T06:23:26.889Z,3.80
2023-01-19T06:25:54.644Z,3.90
2023-01-19T06:28:22.418Z,3.90
2023-01-19T06:30:50.776Z,3.90
2023-01-19T06:33:20.164Z,3.90
2023-01-19T06:35:49.179Z,3.90
2023-01-19T06:38:18.540Z,4.00
2023-01-19T06:40:46.782Z,4.00
2023-01-19T06:43:14.570Z,4.00
2023-01-19T06:45:44.534Z,4.00
2023-01-19T06:48:12.971Z,4.00
2023-01-19T06:50:42.092Z,4.10
2023-01-19T06:53:09.870Z,4.00
2023-01-19T06:55:37.677Z,4.00
2023-01-19T06:58:06.469Z,3.90
2023-01-19T07:00:34.274Z,3.90
2023-01-19T07:03:02.639Z,4.00
2023-01-19T07:05:30.765Z,4.00
2023-01-19T07:07:59.858Z,4.00
2023-01-19T07:10:27.724Z,4.00
2023-01-19T07:13:15.513Z,4.10
2023-01-19T07:15:43.361Z,4.00
2023-01-19T07:18:11.108Z,4.00
2023-01-19T07:20:46.774Z,4.00
2023-01-19T07:23:16.182Z,4.00
2023-01-19T07:25:46.139Z,3.90
2023-01-19T07:28:15.737Z,3.90
2023-01-19T07:30:44.001Z,3.90
2023-01-19T07:33:13.847Z,4.00
2023-01-19T07:35:41.614Z,4.00
2023-01-19T07:38:09.445Z,4.10
2023-01-19T07:40:42.026Z,4.00
2023-01-19T07:43:10.193Z,4.00
2023-01-19T07:45:37.963Z,4.00
2023-01-19T07:48:06.275Z,4.10
2023-01-19T07:50:34.593Z,4.00
2023-01-19T07:53:07.081Z,4.00
2023-01-19T07:55:34.846Z,4.10
2023-01-19T07:58:07.139Z,4.20
2023-01-19T08:00:35.769Z,4.20
2023-01-19T08:03:04.675Z,4.20
2023-01-19T08:05:33.504Z,4.20
2023-01-19T08:08:01.437Z,4.20
2023-01-19T08:10:30.091Z,4.30
2023-01-19T08:12:59.348Z,4.40
2023-01-19T08:15:28.760Z,4.40
2023-01-19T08:17:58.111Z,4.40
2023-01-19T08:20:27.012Z,4.40
2023-01-19T08:22:59.844Z,4.40
2023-01-19T08:25:33.257Z,4.40
2023-01-19T08:28:01.143Z,4.40
2023-01-19T08:30:30.398Z,4.50
2023-01-19T08:33:04.989Z,4.50
2023-01-19T08:35:33.377Z,4.60
2023-01-19T08:38:02.282Z,4.60
2023-01-19T08:40:30.675Z,4.70
2023-01-19T08:43:04.745Z,4.70
2023-01-19T08:45:34.486Z,4.70
2023-01-19T08:48:02.812Z,4.70
2023-01-19T08:50:31.836Z,4.70
2023-01-19T08:53:00.151Z,4.70
2023-01-19T08:55:29.538Z,4.70
2023-01-19T08:58:00.074Z,4.70
2023-01-19T09:00:31.527Z,4.70
2023-01-19T09:03:02.060Z,4.60
2023-01-19T09:05:31.802Z,4.60
2023-01-19T09:07:59.903Z,4.60
2023-01-19T09:10:30.471Z,4.60
2023-01-19T09:12:58.477Z,4.60
2023-01-19T09:15:26.209Z,4.60
2023-01-19T09:17:54.118Z,4.60
2023-01-19T09:20:23.441Z,4.60
2023-01-19T09:22:51.209Z,4.70
2023-01-19T09:25:19.229Z,4.60
2023-01-19T09:27:46.978Z,4.60
2023-01-19T09:30:15.280Z,4.60
2023-01-19T09:32:43.045Z,4.60
2023-01-19T09:35:11.012Z,4.70
2023-01-19T09:37:40.634Z,4.70
2023-01-19T09:40:12.306Z,4.80
2023-01-19T09:42:44.361Z,4.90
2023-01-19T09:45:19.735Z,5.00
2023-01-19T09:47:49.506Z,5.00
2023-01-19T09:50:25.531Z,5.00
2023-01-19T09:53:01.308Z,5.10
2023-01-19T09:55:29.447Z,5.10
2023-01-19T09:57:57.249Z,5.00
2023-01-19T10:00:27.734Z,5.10
2023-01-19T10:03:01.475Z,5.10
2023-01-19T10:05:32.757Z,5.10
2023-01-19T10:08:18.407Z,5.10
2023-01-19T10:10:52.643Z,5.10
2023-01-19T10:13:30.617Z,5.10
2023-01-19T10:16:05.940Z,5.10
2023-01-19T10:18:47.382Z,5.20
2023-01-19T10:21:19.350Z,5.20
2023-01-19T10:23:53.134Z,5.10
2023-01-19T10:26:25.153Z,5.00
2023-01-19T10:28:56.458Z,5.00
2023-01-19T10:31:25.779Z,5.00
2023-01-19T10:33:54.454Z,5.10
2023-01-19T10:36:26.434Z,5.10
2023-01-19T10:38:55.689Z,5.10
2023-01-19T10:41:29.439Z,5.00
2023-01-19T10:44:02.034Z,5.00
2023-01-19T10:46:38.232Z,5.00
2023-01-19T10:49:07.012Z,5.00
2023-01-19T10:51:34.898Z,5.00
2023-01-19T10:54:05.558Z,5.00
2023-01-19T10:56:36.746Z,5.00
2023-01-19T10:59:06.590Z,5.00
2023-01-19T11:01:37.953Z,4.90
2023-01-19T11:04:29.076Z,5.00
2023-01-19T11:07:14.357Z,5.00
2023-01-19T11:09:43.473Z,4.90
2023-01-19T11:12:18.584Z,4.90
2023-01-19T11:14:47.488Z,5.00
2023-01-19T11:17:20.734Z,5.00
2023-01-19T11:19:55.831Z,5.00
2023-01-19T11:22:28.473Z,5.10
2023-01-19T11:25:01.470Z,5.00
2023-01-19T11:27:30.994Z,5.00
2023-01-19T11:30:09.629Z,4.90
2023-01-19T11:32:37.962Z,4.80
2023-01-19T11:35:34.224Z,4.80
2023-01-19T11:38:19.733Z,4.90
2023-01-19T11:40:56.060Z,5.00
2023-01-19T11:43:26.814Z,5.00
2023-01-19T11:45:56.223Z,5.00
2023-01-19T11:48:30.266Z,5.00
2023-01-19T11:51:00.806Z,5.00
2023-01-19T11:53:33.860Z,4.90
2023-01-19T11:56:05.695Z,5.00
2023-01-19T11:58:38.177Z,5.00
2023-01-19T12:01:10.777Z,5.00
2023-01-19T12:03:42.083Z,4.90
2023-01-19T12:06:13.522Z,4.90
2023-01-19T12:08:44.655Z,4.90
2023-01-19T12:11:19.266Z,4.90
2023-01-19T12:13:47.963Z,4.90
2023-01-19T12:16:21.822Z,4.90
2023-01-19T12:18:55.255Z,5.00
2023-01-19T12:21:23.458Z,4.90
2023-01-19T12:24:05.061Z,4.90
2023-01-19T12:26:38.204Z,5.00
2023-01-19T12:29:12.759Z,5.00
2023-01-19T12:31:42.888Z,4.90
2023-01-19T12:34:31.307Z,4.90
2023-01-19T12:37:03.797Z,5.10
2023-01-19T12:39:35.245Z,5.00
2023-01-19T12:42:15.395Z,5.00
2023-01-19T12:44:44.258Z,5.20
2023-01-19T12:47:24.152Z,5.30
2023-01-19T12:49:54.699Z,5.20
2023-01-19T12:52:30.738Z,5.20
2023-01-19T12:55:02.214Z,5.20
2023-01-19T12:57:35.635Z,5.30
